Time,TemperatureF,DewpointF,PressureIn,WindDirection,WindDirectionDegrees,WindSpeedMPH,WindSpeedGustMPH,Humidity,HourlyPrecipIn,Conditions,Clouds,dailyrainin,SoftwareType,DateUTC
2013-03-06 00:00:00,18.2,13.4,30.42,SSE,168,1.0,1.0,81,0.00,,,0.00,WeatherCatV1.14B232,2013-03-06 07:00:00,
2013-03-06 00:05:00,18.0,13.2,30.42,SSE,162,0.0,0.0,81,0.00,,,0.00,WeatherCatV1.14B232,2013-03-06 07:05:00,
2013-03-06 00:10:00,18.1,13.5,30.42,SW,221,3.0,3.0,82,0.00,,,0.00,WeatherCatV1.14B232,2013-03-06 07:10:00,
2013-03-06 00:15:00,18.0,12.9,30.42,South,179,1.0,3.0,80,0.00,,,0.00,WeatherCatV1.14B232,2013-03-06 07:15:00,
2013-03-06 00:20:00,18.0,12.6,30.42,SSE,149,0.0,2.0,79,0.00,,,0.00,WeatherCatV1.14B232,2013-03-06 07:20:00,
2013-03-06 00:25:00,18.1,12.7,30.42,East,100,0.0,0.0,79,0.00,,,0.00,WeatherCatV1.14B232,2013-03-06 07:25:00,
2013-03-06 00:30:00,18.0,12.9,30.42,East,101,0.0,0.0,80,0.00,,,0.00,WeatherCatV1.14B232,2013-03-06 07:30:00,
2013-03-06 00:35:00,17.8,12.4,30.42,East,101,0.0,0.0,79,0.00,,,0.00,WeatherCatV1.14B232,2013-03-06 07:35:00,
2013-03-06 00:40:00,17.6,12.8,30.42,East,96,0.0,1.0,81,0.00,,,0.00,WeatherCatV1.14B232,2013-03-06 07:40:00,
2013-03-06 00:45:00,17.6,13.1,30.42,SSE,166,1.0,1.0,82,0.00,,,0.00,WeatherCatV1.14B232,2013-03-06 07:45:00,
2013-03-06 00:50:00,17.5,12.7,30.42,SW,231,2.0,2.0,81,0.00,,,0.00,WeatherCatV1.14B232,2013-03-06 07:50:00,
2013-03-06 00:55:00,17.3,12.5,30.42,SSE,159,0.0,0.0,81,0.00,,,0.00,WeatherCatV1.14B232,2013-03-06 07:55:00,
2013-03-06 01:00:00,17.1,12.3,30.42,SSE,159,0.0,0.0,81,0.00,,,0.00,WeatherCatV1.14B232,2013-03-06 08:00:00,
2013-03-06 01:05:00,17.2,12.4,30.42,SSW,195,0.0,0.0,81,0.00,,,0.00,WeatherCatV1.14B232,2013-03-06 08:05:00,
2013-03-06 01:10:00,17.1,12.6,30.42,SE,124,0.0,0.0,82,0.00,,,0.00,WeatherCatV1.14B232,2013-03-06 08:10:00,
2013-03-06 01:15:00,17.2,12.4,30.42,ESE,107,0.0,0.0,81,0.00,,,0.00,WeatherCatV1.14B232,2013-03-06 08:15:00,
2013-03-06 01:20:00,17.1,12.8,30.42,SW,232,3.0,3.0,83,0.00,,,0.00,WeatherCatV1.14B232,2013-03-06 08:20:00,
2013-03-06 01:25:00,16.9,12.4,30.42,South,169,0.0,1.0,82,0.00,,,0.00,WeatherCatV1.14B232,2013-03-06 08:25:00,
2013-03-06 01:30:00,16.8,12.0,30.42,NE,53,0.0,1.0,81,0.00,,,0.00,WeatherCatV1.14B232,2013-03-06 08:30:00,
2013-03-06 01:35:00,16.7,12.2,30.42,WSW,248,0.0,0.0,82,0.00,,,0.00,WeatherCatV1.14B232,2013-03-06 08:35:00,
2013-03-06 01:40:00,16.6,12.4,30.42,SSE,166,1.0,2.0,83,0.00,,,0.00,WeatherCatV1.14B232,2013-03-06 08:40:00,
2013-03-06 01:45:00,16.6,12.1,30.41,WSW,249,1.0,1.0,82,0.00,,,0.00,WeatherCatV1.14B232,2013-03-06 08:45:00,
2013-03-06 01:50:00,16.6,12.1,30.41,South,188,1.0,1.0,82,0.00,,,0.00,WeatherCatV1.14B232,2013-03-06 08:50:00,
2013-03-06 01:55:00,16.5,12.5,30.41,SSE,158,0.0,1.0,84,0.00,,,0.00,WeatherCatV1.14B232,2013-03-06 08:55:00,
2013-03-06 02:00:00,16.5,12.5,30.41,WSW,255,2.0,3.0,84,0.00,,,0.00,WeatherCatV1.14B232,2013-03-06 09:00:00,
2013-03-06 02:05:00,16.4,12.2,30.41,SSE,158,0.0,0.0,83,0.00,,,0.00,WeatherCatV1.14B232,2013-03-06 09:05:00,
2013-03-06 02:10:00,16.3,12.3,30.41,SSE,147,1.0,2.0,84,0.00,,,0.00,WeatherCatV1.14B232,2013-03-06 09:10:00,
2013-03-06 02:15:00,16.2,12.2,30.41,SW,226,2.0,2.0,84,0.00,,,0.00,WeatherCatV1.14B232,2013-03-06 09:15:00,
2013-03-06 02:20:00,16.1,11.9,30.40,West,277,0.0,0.0,83,0.00,,,0.00,WeatherCatV1.14B232,2013-03-06 09:20:00,
2013-03-06 02:25:00,16.0,11.8,30.40,ESE,110,2.0,2.0,83,0.00,,,0.00,WeatherCatV1.14B232,2013-03-06 09:25:00,
2013-03-06 02:30:00,16.2,12.0,30.40,West,259,0.0,0.0,83,0.00,,,0.00,WeatherCatV1.14B232,2013-03-06 09:30:00,
2013-03-06 02:35:00,16.3,11.8,30.39,NNE,19,1.0,1.0,82,0.00,,,0.00,WeatherCatV1.14B232,2013-03-06 09:35:00,
2013-03-06 02:40:00,16.3,12.1,30.39,West,259,0.0,0.0,83,0.00,,,0.00,WeatherCatV1.14B232,2013-03-06 09:40:00,
2013-03-06 02:45:00,16.2,12.0,30.39,SSE,159,0.0,1.0,83,0.00,,,0.00,WeatherCatV1.14B232,2013-03-06 09:45:00,
2013-03-06 02:50:00,16.0,12.0,30.39,ENE,73,0.0,1.0,84,0.00,,,0.00,WeatherCatV1.14B232,2013-03-06 09:50:00,
2013-03-06 02:55:00,16.0,12.0,30.39,WNW,288,0.0,0.0,84,0.00,,,0.00,WeatherCatV1.14B232,2013-03-06 09:55:00,
2013-03-06 03:00:00,15.9,12.2,30.39,ESE,122,0.0,1.0,85,0.00,,,0.00,WeatherCatV1.14B232,2013-03-06 10:00:00,
2013-03-06 03:05:00,15.7,12.0,30.39,SSE,152,1.0,1.0,85,0.00,,,0.00,WeatherCatV1.14B232,2013-03-06 10:05:00,
2013-03-06 03:10:00,15.6,11.9,30.39,NE,50,0.0,0.0,85,0.00,,,0.00,WeatherCatV1.14B232,2013-03-06 10:10:00,
2013-03-06 03:15:00,15.5,11.8,30.38,NW,307,0.0,1.0,85,0.00,,,0.00,WeatherCatV1.14B232,2013-03-06 10:15:00,
2013-03-06 03:20:00,15.4,12.0,30.38,South,170,1.0,2.0,86,0.00,,,0.00,WeatherCatV1.14B232,2013-03-06 10:20:00,
2013-03-06 03:25:00,15.4,12.0,30.39,SSW,195,0.0,1.0,86,0.00,,,0.00,WeatherCatV1.14B232,2013-03-06 10:25:00,
2013-03-06 03:30:00,15.4,12.0,30.38,West,264,0.0,2.0,86,0.00,,,0.00,WeatherCatV1.14B232,2013-03-06 10:30:00,
2013-03-06 03:35:00,15.3,11.6,30.38,SSE,148,1.0,2.0,85,0.00,,,0.00,WeatherCatV1.14B232,2013-03-06 10:35:00,
2013-03-06 03:40:00,15.3,11.4,30.38,SW,231,1.0,3.0,84,0.00,,,0.00,WeatherCatV1.14B232,2013-03-06 10:40:00,
2013-03-06 03:45:00,15.1,11.2,30.38,SE,143,0.0,1.0,84,0.00,,,0.00,WeatherCatV1.14B232,2013-03-06 10:45:00,
2013-03-06 03:50:00,15.0,11.3,30.38,SSE,154,0.0,1.0,85,0.00,,,0.00,WeatherCatV1.14B232,2013-03-06 10:50:00,
2013-03-06 03:55:00,14.9,11.2,30.38,East,85,2.0,2.0,85,0.00,,,0.00,WeatherCatV1.14B232,2013-03-06 10:55:00,
2013-03-06 04:00:00,14.9,11.2,30.38,SSE,164,0.0,0.0,85,0.00,,,0.00,WeatherCatV1.14B232,2013-03-06 11:00:00,
2013-03-06 04:05:00,14.8,11.1,30.38,ESE,110,1.0,1.0,85,0.00,,,0.00,WeatherCatV1.14B232,2013-03-06 11:05:00,
2013-03-06 04:10:00,14.8,11.1,30.38,SE,130,0.0,0.0,85,0.00,,,0.00,WeatherCatV1.14B232,2013-03-06 11:10:00,
2013-03-06 04:15:00,14.6,10.9,30.38,SE,130,0.0,0.0,85,0.00,,,0.00,WeatherCatV1.14B232,2013-03-06 11:15:00,
2013-03-06 04:20:00,14.5,10.8,30.38,ESE,109,0.0,0.0,85,0.00,,,0.00,WeatherCatV1.14B232,2013-03-06 11:20:00,
2013-03-06 04:25:00,14.3,10.9,30.38,SSE,153,0.0,1.0,86,0.00,,,0.00,WeatherCatV1.14B232,2013-03-06 11:25:00,
2013-03-06 04:30:00,14.3,10.9,30.38,SSE,155,0.0,0.0,86,0.00,,,0.00,WeatherCatV1.14B232,2013-03-06 11:30:00,
2013-03-06 04:35:00,14.1,11.0,30.38,SE,127,0.0,0.0,87,0.00,,,0.00,WeatherCatV1.14B232,2013-03-06 11:35:00,
2013-03-06 04:40:00,14.1,11.0,30.38,SSW,204,0.0,0.0,87,0.00,,,0.00,WeatherCatV1.14B232,2013-03-06 11:40:00,
2013-03-06 04:45:00,14.0,10.9,30.38,West,271,0.0,0.0,87,0.00,,,0.00,WeatherCatV1.14B232,2013-03-06 11:45:00,
2013-03-06 04:50:00,13.9,11.0,30.38,WSW,242,1.0,1.0,88,0.00,,,0.00,WeatherCatV1.14B232,2013-03-06 11:50:00,
2013-03-06 04:55:00,13.9,10.8,30.38,ENE,69,0.0,0.0,87,0.00,,,0.00,WeatherCatV1.14B232,2013-03-06 11:55:00,
2013-03-06 05:00:00,13.8,10.7,30.38,ENE,70,0.0,0.0,87,0.00,,,0.00,WeatherCatV1.14B232,2013-03-06 12:00:00,
2013-03-06 05:05:00,13.8,10.9,30.38,ESE,117,0.0,1.0,88,0.00,,,0.00,WeatherCatV1.14B232,2013-03-06 12:05:00,
2013-03-06 05:10:00,13.7,10.8,30.38,South,188,2.0,2.0,88,0.00,,,0.00,WeatherCatV1.14B232,2013-03-06 12:10:00,
2013-03-06 05:15:00,13.6,10.2,30.38,SSW,201,0.0,0.0,86,0.00,,,0.00,WeatherCatV1.14B232,2013-03-06 12:15:00,
2013-03-06 05:20:00,13.4,10.3,30.38,SSE,166,0.0,0.0,87,0.00,,,0.00,WeatherCatV1.14B232,2013-03-06 12:20:00,
2013-03-06 05:25:00,13.5,10.4,30.38,South,170,1.0,2.0,87,0.00,,,0.00,WeatherCatV1.14B232,2013-03-06 12:25:00,
2013-03-06 05:30:00,13.5,10.1,30.38,SE,136,0.0,0.0,86,0.00,,,0.00,WeatherCatV1.14B232,2013-03-06 12:30:00,
2013-03-06 05:35:00,13.6,10.5,30.38,East,82,1.0,2.0,87,0.00,,,0.00,WeatherCatV1.14B232,2013-03-06 12:35:00,
2013-03-06 05:40:00,13.7,10.3,30.38,SW,224,3.0,3.0,86,0.00,,,0.00,WeatherCatV1.14B232,2013-03-06 12:40:00,
2013-03-06 05:45:00,13.6,10.5,30.37,East,97,1.0,1.0,87,0.00,,,0.00,WeatherCatV1.14B232,2013-03-06 12:45:00,
2013-03-06 05:50:00,13.5,10.4,30.37,SSE,153,0.0,1.0,87,0.00,,,0.00,WeatherCatV1.14B232,2013-03-06 12:50:00,
2013-03-06 05:55:00,13.5,10.1,30.38,SE,143,0.0,0.0,86,0.00,,,0.00,WeatherCatV1.14B232,2013-03-06 12:55:00,
2013-03-06 06:00:00,13.5,10.1,30.37,NNE,20,0.0,1.0,86,0.00,,,0.00,WeatherCatV1.14B232,2013-03-06 13:00:00,
2013-03-06 06:05:00,13.4,10.0,30.38,NNE,22,0.0,0.0,86,0.00,,,0.00,WeatherCatV1.14B232,2013-03-06 13:05:00,
2013-03-06 06:10:00,13.3,10.2,30.37,NNE,23,0.0,0.0,87,0.00,,,0.00,WeatherCatV1.14B232,2013-03-06 13:10:00,
2013-03-06 06:15:00,13.3,10.2,30.37,South,177,0.0,0.0,87,0.00,,,0.00,WeatherCatV1.14B232,2013-03-06 13:15:00,
2013-03-06 06:20:00,13.2,10.3,30.37,SSE,159,1.0,2.0,88,0.00,,,0.00,WeatherCatV1.14B232,2013-03-06 13:20:00,
2013-03-06 06:25:00,13.1,10.2,30.38,SE,139,0.0,1.0,88,0.00,,,0.00,WeatherCatV1.14B232,2013-03-06 13:25:00,
2013-03-06 06:30:00,13.0,10.1,30.38,SW,222,0.0,0.0,88,0.00,,,0.00,WeatherCatV1.14B232,2013-03-06 13:30:00,
2013-03-06 06:35:00,13.0,9.9,30.37,SSE,160,0.0,1.0,87,0.00,,,0.00,WeatherCatV1.14B232,2013-03-06 13:35:00,
2013-03-06 06:40:00,13.0,10.1,30.37,ENE,78,0.0,1.0,88,0.00,,,0.00,WeatherCatV1.14B232,2013-03-06 13:40:00,
2013-03-06 06:45:00,13.1,10.2,30.37,ESE,122,0.0,0.0,88,0.00,,,0.00,WeatherCatV1.14B232,2013-03-06 13:45:00,
2013-03-06 06:50:00,13.2,10.3,30.37,WSW,253,1.0,1.0,88,0.00,,,0.00,WeatherCatV1.14B232,2013-03-06 13:50:00,
2013-03-06 06:55:00,13.3,10.4,30.38,ESE,120,1.0,1.0,88,0.00,,,0.00,WeatherCatV1.14B232,2013-03-06 13:55:00,
2013-03-06 07:00:00,14.0,10.6,30.37,ESE,108,2.0,3.0,86,0.00,,,0.00,WeatherCatV1.14B232,2013-03-06 14:00:00,
2013-03-06 07:05:00,14.9,11.2,30.37,ESE,102,0.0,0.0,85,0.00,,,0.00,WeatherCatV1.14B232,2013-03-06 14:05:00,
2013-03-06 07:10:00,16.0,11.8,30.37,South,169,0.0,1.0,83,0.00,,,0.00,WeatherCatV1.14B232,2013-03-06 14:10:00,
2013-03-06 07:15:00,17.0,11.9,30.36,South,177,1.0,2.0,80,0.00,,,0.00,WeatherCatV1.14B232,2013-03-06 14:15:00,
2013-03-06 07:20:00,17.7,12.3,30.36,East,88,1.0,2.0,79,0.00,,,0.00,WeatherCatV1.14B232,2013-03-06 14:20:00,
2013-03-06 07:25:00,18.0,12.3,30.36,NE,42,0.0,1.0,78,0.00,,,0.00,WeatherCatV1.14B232,2013-03-06 14:25:00,
2013-03-06 07:30:00,19.1,12.5,30.36,East,94,1.0,2.0,75,0.00,,,0.00,WeatherCatV1.14B232,2013-03-06 14:30:00,
2013-03-06 07:35:00,19.4,12.8,30.36,WSW,239,0.0,1.0,75,0.00,,,0.00,WeatherCatV1.14B232,2013-03-06 14:35:00,
2013-03-06 07:40:00,20.6,13.3,30.36,SW,218,0.0,0.0,73,0.00,,,0.00,WeatherCatV1.14B232,2013-03-06 14:40:00,
2013-03-06 07:45:00,20.8,13.2,30.36,SSE,165,1.0,2.0,72,0.00,,,0.00,WeatherCatV1.14B232,2013-03-06 14:45:00,
2013-03-06 07:50:00,21.3,13.7,30.36,ESE,123,1.0,1.0,72,0.00,,,0.00,WeatherCatV1.14B232,2013-03-06 14:50:00,
2013-03-06 07:55:00,21.7,14.1,30.36,SSE,153,1.0,1.0,72,0.00,,,0.00,WeatherCatV1.14B232,2013-03-06 14:55:00,
2013-03-06 08:00:00,22.2,13.6,30.36,East,98,1.0,2.0,69,0.00,,,0.00,WeatherCatV1.14B232,2013-03-06 15:00:00,
2013-03-06 08:05:00,22.5,14.5,30.35,SE,131,0.0,0.0,71,0.00,,,0.00,WeatherCatV1.14B232,2013-03-06 15:05:00,
2013-03-06 08:10:00,23.7,14.7,30.36,ESE,121,0.0,0.0,68,0.00,,,0.00,WeatherCatV1.14B232,2013-03-06 15:10:00,
2013-03-06 08:15:00,24.9,14.5,30.35,South,175,1.0,2.0,64,0.00,,,0.00,WeatherCatV1.14B232,2013-03-06 15:15:00,
2013-03-06 08:20:00,25.1,14.3,30.35,SSE,160,2.0,2.0,63,0.00,,,0.00,WeatherCatV1.14B232,2013-03-06 15:20:00,
2013-03-06 08:25:00,25.5,14.7,30.35,East,98,1.0,1.0,63,0.00,,,0.00,WeatherCatV1.14B232,2013-03-06 15:25:00,
2013-03-06 08:30:00,25.7,14.9,30.35,SW,224,1.0,2.0,63,0.00,,,0.00,WeatherCatV1.14B232,2013-03-06 15:30:00,
2013-03-06 08:35:00,25.9,14.7,30.35,SW,219,2.0,3.0,62,0.00,,,0.00,WeatherCatV1.14B232,2013-03-06 15:35:00,
2013-03-06 08:40:00,25.8,14.2,30.35,SSE,154,2.0,2.0,61,0.00,,,0.00,WeatherCatV1.14B232,2013-03-06 15:40:00,
2013-03-06 08:45:00,26.5,14.5,30.34,SSE,166,2.0,2.0,60,0.00,,,0.00,WeatherCatV1.14B232,2013-03-06 15:45:00,
2013-03-06 08:50:00,26.9,14.5,30.34,WNW,294,0.0,1.0,59,0.00,,,0.00,WeatherCatV1.14B232,2013-03-06 15:50:00,
2013-03-06 08:55:00,27.5,15.1,30.34,SW,219,3.0,4.0,59,0.00,,,0.00,WeatherCatV1.14B232,2013-03-06 15:55:00,
2013-03-06 09:00:00,27.9,15.5,30.34,SE,138,1.0,2.0,59,0.00,,,0.00,WeatherCatV1.14B232,2013-03-06 16:00:00,
2013-03-06 09:05:00,28.9,16.0,30.34,WSW,253,2.0,4.0,58,0.00,,,0.00,WeatherCatV1.14B232,2013-03-06 16:05:00,
2013-03-06 09:10:00,28.4,15.5,30.33,SW,217,1.0,1.0,58,0.00,,,0.00,WeatherCatV1.14B232,2013-03-06 16:10:00,
2013-03-06 09:15:00,28.8,15.5,30.33,SW,235,1.0,3.0,57,0.00,,,0.00,WeatherCatV1.14B232,2013-03-06 16:15:00,
2013-03-06 09:20:00,29.8,15.6,30.32,East,81,1.0,3.0,55,0.00,,,0.00,WeatherCatV1.14B232,2013-03-06 16:20:00,
2013-03-06 09:25:00,30.2,14.3,30.32,East,79,0.0,2.0,51,0.00,,,0.00,WeatherCatV1.14B232,2013-03-06 16:25:00,
2013-03-06 09:30:00,30.9,14.9,30.32,East,90,0.0,2.0,51,0.00,,,0.00,WeatherCatV1.14B232,2013-03-06 16:30:00,
2013-03-06 09:35:00,31.4,14.5,30.31,South,188,0.0,1.0,49,0.00,,,0.00,WeatherCatV1.14B232,2013-03-06 16:35:00,
2013-03-06 09:40:00,32.4,14.9,30.31,SE,131,0.0,2.0,48,0.00,,,0.00,WeatherCatV1.14B232,2013-03-06 16:40:00,
2013-03-06 09:45:00,32.8,15.3,30.30,SE,126,2.0,2.0,48,0.00,,,0.00,WeatherCatV1.14B232,2013-03-06 16:45:00,
2013-03-06 09:50:00,32.8,15.8,30.29,SE,133,1.0,3.0,49,0.00,,,0.00,WeatherCatV1.14B232,2013-03-06 16:50:00,
2013-03-06 09:55:00,33.5,16.4,30.29,East,82,0.0,1.0,49,0.00,,,0.00,WeatherCatV1.14B232,2013-03-06 16:55:00,
2013-03-06 10:00:00,34.6,16.0,30.29,ESE,120,2.0,3.0,46,0.00,,,0.00,WeatherCatV1.14B232,2013-03-06 17:00:00,
2013-03-06 10:05:00,34.4,14.8,30.28,NNW,339,2.0,4.0,44,0.00,,,0.00,WeatherCatV1.14B232,2013-03-06 17:05:00,
2013-03-06 10:10:00,34.7,15.6,30.28,SE,141,2.0,2.0,45,0.00,,,0.00,WeatherCatV1.14B232,2013-03-06 17:10:00,
2013-03-06 10:15:00,35.3,16.1,30.27,NNW,339,1.0,2.0,45,0.00,,,0.00,WeatherCatV1.14B232,2013-03-06 17:15:00,
2013-03-06 10:20:00,36.0,15.7,30.26,ENE,63,2.0,5.0,43,0.00,,,0.00,WeatherCatV1.14B232,2013-03-06 17:20:00,
2013-03-06 10:25:00,36.0,15.7,30.26,ESE,109,0.0,3.0,43,0.00,,,0.00,WeatherCatV1.14B232,2013-03-06 17:25:00,
2013-03-06 10:30:00,36.5,16.2,30.26,South,191,2.0,3.0,43,0.00,,,0.00,WeatherCatV1.14B232,2013-03-06 17:30:00,
2013-03-06 10:35:00,37.7,16.7,30.25,SW,218,2.0,3.0,42,0.00,,,0.00,WeatherCatV1.14B232,2013-03-06 17:35:00,
2013-03-06 10:40:00,38.6,17.0,30.25,SW,216,1.0,1.0,41,0.00,,,0.00,WeatherCatV1.14B232,2013-03-06 17:40:00,
2013-03-06 10:45:00,39.1,16.8,30.24,South,178,1.0,2.0,40,0.00,,,0.00,WeatherCatV1.14B232,2013-03-06 17:45:00,
2013-03-06 10:50:00,39.7,16.8,30.23,ENE,72,4.0,5.0,39,0.00,,,0.00,WeatherCatV1.14B232,2013-03-06 17:50:00,
2013-03-06 10:55:00,40.1,15.9,30.24,NE,40,6.0,6.0,37,0.00,,,0.00,WeatherCatV1.14B232,2013-03-06 17:55:00,
2013-03-06 11:00:00,40.3,16.1,30.22,NNE,25,2.0,5.0,37,0.00,,,0.00,WeatherCatV1.14B232,2013-03-06 18:00:00,
2013-03-06 11:05:00,41.2,16.9,30.23,NNW,347,4.0,4.0,37,0.00,,,0.00,WeatherCatV1.14B232,2013-03-06 18:05:00,
2013-03-06 11:10:00,41.4,17.1,30.22,NNE,30,3.0,3.0,37,0.00,,,0.00,WeatherCatV1.14B232,2013-03-06 18:10:00,
2013-03-06 11:15:00,41.8,17.5,30.21,NNW,347,3.0,3.0,37,0.00,,,0.00,WeatherCatV1.14B232,2013-03-06 18:15:00,
2013-03-06 11:20:00,42.8,18.4,30.21,South,191,1.0,1.0,37,0.00,,,0.00,WeatherCatV1.14B232,2013-03-06 18:20:00,
2013-03-06 11:25:00,43.3,18.2,30.20,East,81,0.0,3.0,36,0.00,,,0.00,WeatherCatV1.14B232,2013-03-06 18:25:00,
2013-03-06 11:30:00,43.8,18.0,30.20,WNW,285,0.0,3.0,35,0.00,,,0.00,WeatherCatV1.14B232,2013-03-06 18:30:00,
2013-03-06 11:35:00,45.0,19.0,30.20,WSW,245,0.0,4.0,35,0.00,,,0.00,WeatherCatV1.14B232,2013-03-06 18:35:00,
2013-03-06 11:40:00,46.3,20.2,30.19,West,278,0.0,1.0,35,0.00,,,0.00,WeatherCatV1.14B232,2013-03-06 18:40:00,
2013-03-06 11:45:00,47.5,19.1,30.18,SE,130,1.0,4.0,32,0.00,,,0.00,WeatherCatV1.14B232,2013-03-06 18:45:00,
2013-03-06 11:50:00,47.1,20.2,30.18,NNW,335,1.0,1.0,34,0.00,,,0.00,WeatherCatV1.14B232,2013-03-06 18:50:00,
2013-03-06 11:55:00,47.7,20.0,30.17,South,172,0.0,2.0,33,0.00,,,0.00,WeatherCatV1.14B232,2013-03-06 18:55:00,
2013-03-06 12:00:00,47.5,19.1,30.17,NNW,338,0.0,1.0,32,0.00,,,0.00,WeatherCatV1.14B232,2013-03-06 19:00:00,
2013-03-06 12:05:00,47.9,20.2,30.17,West,264,1.0,6.0,33,0.00,,,0.00,WeatherCatV1.14B232,2013-03-06 19:05:00,
2013-03-06 12:10:00,48.1,18.9,30.15,ENE,63,1.0,6.0,31,0.00,,,0.00,WeatherCatV1.14B232,2013-03-06 19:10:00,
2013-03-06 12:15:00,48.4,19.9,30.15,North,351,2.0,5.0,32,0.00,,,0.00,WeatherCatV1.14B232,2013-03-06 19:15:00,
2013-03-06 12:20:00,48.5,20.0,30.15,ENE,71,1.0,3.0,32,0.00,,,0.00,WeatherCatV1.14B232,2013-03-06 19:20:00,
2013-03-06 12:25:00,48.8,21.7,30.14,West,280,2.0,4.0,34,0.00,,,0.00,WeatherCatV1.14B232,2013-03-06 19:25:00,
2013-03-06 12:30:00,49.8,21.9,30.14,WSW,239,3.0,4.0,33,0.00,,,0.00,WeatherCatV1.14B232,2013-03-06 19:30:00,
2013-03-06 12:35:00,51.0,22.2,30.13,North,350,5.0,6.0,32,0.00,,,0.00,WeatherCatV1.14B232,2013-03-06 19:35:00,
2013-03-06 12:40:00,51.4,23.3,30.12,WSW,243,1.0,2.0,33,0.00,,,0.00,WeatherCatV1.14B232,2013-03-06 19:40:00,
2013-03-06 12:45:00,52.8,22.2,30.12,North,8,3.0,6.0,30,0.00,,,0.00,WeatherCatV1.14B232,2013-03-06 19:45:00,
2013-03-06 12:50:00,52.7,22.1,30.11,NNW,341,1.0,2.0,30,0.00,,,0.00,WeatherCatV1.14B232,2013-03-06 19:50:00,
2013-03-06 12:55:00,53.1,23.3,30.10,NNW,330,3.0,6.0,31,0.00,,,0.00,WeatherCatV1.14B232,2013-03-06 19:55:00,
2013-03-06 13:00:00,53.0,22.4,30.10,WNW,283,2.0,4.0,30,0.00,,,0.00,WeatherCatV1.14B232,2013-03-06 20:00:00,
2013-03-06 13:05:00,53.3,22.7,30.09,WNW,295,1.0,5.0,30,0.00,,,0.00,WeatherCatV1.14B232,2013-03-06 20:05:00,
2013-03-06 13:10:00,54.3,23.5,30.09,ENE,71,5.0,5.0,30,0.00,,,0.00,WeatherCatV1.14B232,2013-03-06 20:10:00,
2013-03-06 13:15:00,55.3,21.9,30.08,SE,129,5.0,11.0,27,0.00,,,0.00,WeatherCatV1.14B232,2013-03-06 20:15:00,
2013-03-06 13:20:00,55.9,22.4,30.08,South,191,5.0,10.0,27,0.00,,,0.00,WeatherCatV1.14B232,2013-03-06 20:20:00,
2013-03-06 13:25:00,56.9,20.5,30.07,WNW,295,6.0,8.0,24,0.00,,,0.00,WeatherCatV1.14B232,2013-03-06 20:25:00,
2013-03-06 13:30:00,57.6,21.1,30.06,South,169,7.0,13.0,24,0.00,,,0.00,WeatherCatV1.14B232,2013-03-06 20:30:00,
2013-03-06 13:35:00,57.3,21.8,30.06,SSE,165,12.0,13.0,25,0.00,,,0.00,WeatherCatV1.14B232,2013-03-06 20:35:00,
2013-03-06 13:40:00,57.1,21.6,30.05,SSE,159,10.0,12.0,25,0.00,,,0.00,WeatherCatV1.14B232,2013-03-06 20:40:00,
2013-03-06 13:45:00,57.1,20.7,30.05,West,264,7.0,13.0,24,0.00,,,0.00,WeatherCatV1.14B232,2013-03-06 20:45:00,
2013-03-06 13:50:00,57.2,21.7,30.05,ESE,103,9.0,13.0,25,0.00,,,0.00,WeatherCatV1.14B232,2013-03-06 20:50:00,
2013-03-06 13:55:00,56.8,21.4,30.04,SSE,159,6.0,14.0,25,0.00,,,0.00,WeatherCatV1.14B232,2013-03-06 20:55:00,
2013-03-06 14:00:00,56.6,22.1,30.04,SSE,160,10.0,13.0,26,0.00,,,0.00,WeatherCatV1.14B232,2013-03-06 21:00:00,
2013-03-06 14:05:00,56.6,22.1,30.03,SSW,212,8.0,10.0,26,0.00,,,0.00,WeatherCatV1.14B232,2013-03-06 21:05:00,
2013-03-06 14:10:00,56.5,20.2,30.02,SW,235,12.0,16.0,24,0.00,,,0.00,WeatherCatV1.14B232,2013-03-06 21:10:00,
2013-03-06 14:15:00,56.3,19.0,30.02,WSW,239,12.0,19.0,23,0.00,,,0.00,WeatherCatV1.14B232,2013-03-06 21:15:00,
2013-03-06 14:20:00,57.0,20.6,30.02,West,269,7.0,15.0,24,0.00,,,0.00,WeatherCatV1.14B232,2013-03-06 21:20:00,
2013-03-06 14:25:00,57.5,21.0,30.02,SSW,201,8.0,11.0,24,0.00,,,0.00,WeatherCatV1.14B232,2013-03-06 21:25:00,
2013-03-06 14:30:00,57.2,19.7,30.02,WSW,239,7.0,15.0,23,0.00,,,0.00,WeatherCatV1.14B232,2013-03-06 21:30:00,
2013-03-06 14:35:00,57.1,19.7,30.01,SE,128,6.0,17.0,23,0.00,,,0.00,WeatherCatV1.14B232,2013-03-06 21:35:00,
2013-03-06 14:40:00,56.8,20.4,30.01,SW,225,17.0,18.0,24,0.00,,,0.00,WeatherCatV1.14B232,2013-03-06 21:40:00,
2013-03-06 14:45:00,57.0,19.6,30.01,WSW,238,10.0,12.0,23,0.00,,,0.00,WeatherCatV1.14B232,2013-03-06 21:45:00,
2013-03-06 14:50:00,57.3,19.8,30.02,SW,225,9.0,15.0,23,0.00,,,0.00,WeatherCatV1.14B232,2013-03-06 21:50:00,
2013-03-06 14:55:00,57.3,18.8,30.02,SSE,155,5.0,14.0,22,0.00,,,0.00,WeatherCatV1.14B232,2013-03-06 21:55:00,
2013-03-06 15:00:00,57.2,18.7,30.02,SSE,149,5.0,15.0,22,0.00,,,0.00,WeatherCatV1.14B232,2013-03-06 22:00:00,
2013-03-06 15:05:00,57.3,18.8,30.02,ESE,121,7.0,8.0,22,0.00,,,0.00,WeatherCatV1.14B232,2013-03-06 22:05:00,
2013-03-06 15:10:00,57.4,18.9,30.02,South,177,5.0,9.0,22,0.00,,,0.00,WeatherCatV1.14B232,2013-03-06 22:10:00,
2013-03-06 15:15:00,57.5,17.9,30.02,SW,225,4.0,7.0,21,0.00,,,0.00,WeatherCatV1.14B232,2013-03-06 22:15:00,
2013-03-06 15:20:00,57.8,19.2,30.02,SSW,194,3.0,7.0,22,0.00,,,0.00,WeatherCatV1.14B232,2013-03-06 22:20:00,
2013-03-06 15:25:00,57.9,20.3,30.01,South,174,12.0,16.0,23,0.00,,,0.00,WeatherCatV1.14B232,2013-03-06 22:25:00,
2013-03-06 15:30:00,58.0,19.4,30.01,WSW,255,3.0,6.0,22,0.00,,,0.00,WeatherCatV1.14B232,2013-03-06 22:30:00,
2013-03-06 15:35:00,58.3,20.7,30.01,SE,146,6.0,7.0,23,0.00,,,0.00,WeatherCatV1.14B232,2013-03-06 22:35:00,
2013-03-06 15:40:00,58.0,20.4,30.02,South,179,4.0,11.0,23,0.00,,,0.00,WeatherCatV1.14B232,2013-03-06 22:40:00,
2013-03-06 15:45:00,57.9,20.3,30.02,SSW,193,3.0,8.0,23,0.00,,,0.00,WeatherCatV1.14B232,2013-03-06 22:45:00,
2013-03-06 15:50:00,57.8,19.2,30.01,SE,134,5.0,16.0,22,0.00,,,0.00,WeatherCatV1.14B232,2013-03-06 22:50:00,
2013-03-06 15:55:00,57.3,19.8,30.01,SSE,158,4.0,7.0,23,0.00,,,0.00,WeatherCatV1.14B232,2013-03-06 22:55:00,
2013-03-06 16:00:00,57.3,18.8,30.01,WSW,238,4.0,9.0,22,0.00,,,0.00,WeatherCatV1.14B232,2013-03-06 23:00:00,
2013-03-06 16:05:00,57.9,17.1,30.01,West,267,6.0,6.0,20,0.00,,,0.00,WeatherCatV1.14B232,2013-03-06 23:05:00,
2013-03-06 16:10:00,58.0,16.0,30.00,SSW,210,6.0,7.0,19,0.00,,,0.00,WeatherCatV1.14B232,2013-03-06 23:10:00,
2013-03-06 16:15:00,57.8,18.1,30.00,SSW,200,5.0,8.0,21,0.00,,,0.00,WeatherCatV1.14B232,2013-03-06 23:15:00,
2013-03-06 16:20:00,57.6,18.0,30.00,SSE,156,4.0,7.0,21,0.00,,,0.00,WeatherCatV1.14B232,2013-03-06 23:20:00,
2013-03-06 16:25:00,57.5,19.0,30.00,SSW,206,3.0,7.0,22,0.00,,,0.00,WeatherCatV1.14B232,2013-03-06 23:25:00,
2013-03-06 16:30:00,56.7,19.3,30.00,South,184,3.0,9.0,23,0.00,,,0.00,WeatherCatV1.14B232,2013-03-06 23:30:00,
2013-03-06 16:35:00,56.5,19.2,30.00,SSE,162,3.0,7.0,23,0.00,,,0.00,WeatherCatV1.14B232,2013-03-06 23:35:00,
2013-03-06 16:40:00,56.0,18.7,30.00,SSW,208,4.0,8.0,23,0.00,,,0.00,WeatherCatV1.14B232,2013-03-06 23:40:00,
2013-03-06 16:45:00,56.2,18.9,29.99,SSW,200,4.0,6.0,23,0.00,,,0.00,WeatherCatV1.14B232,2013-03-06 23:45:00,
2013-03-06 16:50:00,55.9,19.6,29.99,WSW,243,1.0,6.0,24,0.00,,,0.00,WeatherCatV1.14B232,2013-03-06 23:50:00,
2013-03-06 16:55:00,55.8,19.6,29.99,WSW,238,1.0,5.0,24,0.00,,,0.00,WeatherCatV1.14B232,2013-03-06 23:55:00,
2013-03-06 17:00:00,54.9,19.8,29.99,SE,129,0.0,1.0,25,0.00,,,0.00,WeatherCatV1.14B232,2013-03-07 00:00:00,
2013-03-06 17:05:00,54.1,19.1,29.99,SSW,193,0.0,3.0,25,0.00,,,0.00,WeatherCatV1.14B232,2013-03-07 00:05:00,
2013-03-06 17:10:00,53.5,20.4,29.99,WSW,248,3.0,3.0,27,0.00,,,0.00,WeatherCatV1.14B232,2013-03-07 00:10:00,
2013-03-06 17:16:00,53.4,17.5,29.99,WSW,248,9.0,9.0,24,0.00,,,0.00,WeatherCatV1.14B232,2013-03-07 00:16:00,
2013-03-06 17:21:00,53.7,17.8,29.99,South,169,2.0,4.0,24,0.00,,,0.00,WeatherCatV1.14B232,2013-03-07 00:21:00,
2013-03-06 17:26:00,53.1,20.0,29.99,SE,135,2.0,4.0,27,0.00,,,0.00,WeatherCatV1.14B232,2013-03-07 00:26:00,
2013-03-06 17:31:00,52.6,16.9,29.99,SW,222,7.0,7.0,24,0.00,,,0.00,WeatherCatV1.14B232,2013-03-07 00:31:00,
2013-03-06 17:36:00,52.8,18.0,29.99,SSW,201,2.0,2.0,25,0.00,,,0.00,WeatherCatV1.14B232,2013-03-07 00:36:00,
2013-03-06 17:41:00,52.7,16.9,29.99,SSE,153,4.0,5.0,24,0.00,,,0.00,WeatherCatV1.14B232,2013-03-07 00:41:00,
2013-03-06 17:46:00,52.5,17.7,30.00,West,266,4.0,8.0,25,0.00,,,0.00,WeatherCatV1.14B232,2013-03-07 00:46:00,
2013-03-06 17:51:00,51.7,17.9,30.00,West,259,3.0,5.0,26,0.00,,,0.00,WeatherCatV1.14B232,2013-03-07 00:51:00,
2013-03-06 17:56:00,51.8,17.1,30.00,SW,230,5.0,8.0,25,0.00,,,0.00,WeatherCatV1.14B232,2013-03-07 00:56:00,
2013-03-06 18:01:00,51.6,17.9,30.00,West,281,3.0,6.0,26,0.00,,,0.00,WeatherCatV1.14B232,2013-03-07 01:01:00,
2013-03-06 18:06:00,50.7,19.6,30.00,SSE,162,2.0,4.0,29,0.00,,,0.00,WeatherCatV1.14B232,2013-03-07 01:06:00,
2013-03-06 18:11:00,49.6,19.5,30.00,SW,225,0.0,3.0,30,0.00,,,0.00,WeatherCatV1.14B232,2013-03-07 01:11:00,
2013-03-06 18:16:00,49.1,18.2,30.00,SSE,165,0.0,4.0,29,0.00,,,0.00,WeatherCatV1.14B232,2013-03-07 01:16:00,
2013-03-06 18:21:00,48.7,19.4,30.00,SE,138,0.0,1.0,31,0.00,,,0.00,WeatherCatV1.14B232,2013-03-07 01:21:00,
2013-03-06 18:26:00,48.3,18.3,30.00,SE,128,0.0,2.0,30,0.00,,,0.00,WeatherCatV1.14B232,2013-03-07 01:26:00,
2013-03-06 18:31:00,47.9,18.7,30.00,WSW,243,1.0,1.0,31,0.00,,,0.00,WeatherCatV1.14B232,2013-03-07 01:31:00,
2013-03-06 18:36:00,48.0,18.8,30.00,WSW,239,1.0,1.0,31,0.00,,,0.00,WeatherCatV1.14B232,2013-03-07 01:36:00,
2013-03-06 18:41:00,47.6,19.9,30.01,SW,225,1.0,3.0,33,0.00,,,0.00,WeatherCatV1.14B232,2013-03-07 01:41:00,
2013-03-06 18:46:00,47.3,19.7,30.01,West,259,0.0,2.0,33,0.00,,,0.00,WeatherCatV1.14B232,2013-03-07 01:46:00,
2013-03-06 18:51:00,47.4,19.8,30.02,WSW,256,1.0,5.0,33,0.00,,,0.00,WeatherCatV1.14B232,2013-03-07 01:51:00,
2013-03-06 18:56:00,47.6,19.2,30.02,WSW,240,4.0,6.0,32,0.00,,,0.00,WeatherCatV1.14B232,2013-03-07 01:56:00,
2013-03-06 19:01:00,49.2,18.3,30.02,SW,226,3.0,8.0,29,0.00,,,0.00,WeatherCatV1.14B232,2013-03-07 02:01:00,
2013-03-06 19:06:00,49.9,18.1,30.02,West,271,1.0,4.0,28,0.00,,,0.00,WeatherCatV1.14B232,2013-03-07 02:06:00,
2013-03-06 19:11:00,49.1,19.8,30.02,SE,127,1.0,2.0,31,0.00,,,0.00,WeatherCatV1.14B232,2013-03-07 02:11:00,
2013-03-06 19:16:00,48.0,20.3,30.02,NE,53,0.0,1.0,33,0.00,,,0.00,WeatherCatV1.14B232,2013-03-07 02:16:00,
2013-03-06 19:21:00,46.6,21.1,30.02,North,5,1.0,1.0,36,0.00,,,0.00,WeatherCatV1.14B232,2013-03-07 02:21:00,
2013-03-06 19:26:00,45.8,19.7,30.02,North,11,1.0,1.0,35,0.00,,,0.00,WeatherCatV1.14B232,2013-03-07 02:26:00,
2013-03-06 19:31:00,45.1,21.6,30.02,ENE,77,2.0,2.0,39,0.00,,,0.00,WeatherCatV1.14B232,2013-03-07 02:31:00,
2013-03-06 19:36:00,44.3,21.5,30.02,WNW,287,0.0,2.0,40,0.00,,,0.00,WeatherCatV1.14B232,2013-03-07 02:36:00,
2013-03-06 19:41:00,43.5,21.9,30.01,North,349,1.0,1.0,42,0.00,,,0.00,WeatherCatV1.14B232,2013-03-07 02:41:00,
2013-03-06 19:46:00,42.7,21.8,30.02,ESE,113,0.0,0.0,43,0.00,,,0.00,WeatherCatV1.14B232,2013-03-07 02:46:00,
2013-03-06 19:51:00,42.3,21.4,30.01,NNE,13,1.0,2.0,43,0.00,,,0.00,WeatherCatV1.14B232,2013-03-07 02:51:00,
2013-03-06 19:56:00,41.8,23.6,30.02,East,81,1.0,2.0,48,0.00,,,0.00,WeatherCatV1.14B232,2013-03-07 02:56:00,
2013-03-06 20:01:00,42.1,22.8,30.02,West,281,1.0,1.0,46,0.00,,,0.00,WeatherCatV1.14B232,2013-03-07 03:01:00,
2013-03-06 20:06:00,41.7,21.9,30.02,West,278,0.0,0.0,45,0.00,,,0.00,WeatherCatV1.14B232,2013-03-07 03:06:00,
2013-03-06 20:11:00,41.5,22.3,30.02,West,278,0.0,1.0,46,0.00,,,0.00,WeatherCatV1.14B232,2013-03-07 03:11:00,
2013-03-06 20:16:00,41.1,22.4,30.02,North,349,1.0,1.0,47,0.00,,,0.00,WeatherCatV1.14B232,2013-03-07 03:16:00,
2013-03-06 20:21:00,40.6,22.5,30.01,NNW,333,0.0,0.0,48,0.00,,,0.00,WeatherCatV1.14B232,2013-03-07 03:21:00,
2013-03-06 20:26:00,40.1,22.0,30.01,NE,51,0.0,0.0,48,0.00,,,0.00,WeatherCatV1.14B232,2013-03-07 03:26:00,
2013-03-06 20:31:00,39.5,25.5,30.01,WSW,246,0.0,1.0,57,0.00,,,0.00,WeatherCatV1.14B232,2013-03-07 03:31:00,
2013-03-06 20:36:00,39.0,23.3,30.01,NNW,329,0.0,1.0,53,0.00,,,0.00,WeatherCatV1.14B232,2013-03-07 03:36:00,
2013-03-06 20:41:00,39.0,23.8,30.02,ESE,106,0.0,0.0,54,0.00,,,0.00,WeatherCatV1.14B232,2013-03-07 03:41:00,
2013-03-06 20:46:00,38.8,24.5,30.02,West,273,0.0,1.0,56,0.00,,,0.00,WeatherCatV1.14B232,2013-03-07 03:46:00,
2013-03-06 20:51:00,38.8,23.2,30.02,NW,321,0.0,0.0,53,0.00,,,0.00,WeatherCatV1.14B232,2013-03-07 03:51:00,
2013-03-06 20:56:00,38.7,22.6,30.01,NNE,24,0.0,0.0,52,0.00,,,0.00,WeatherCatV1.14B232,2013-03-07 03:56:00,
2013-03-06 21:01:00,38.5,23.3,30.02,WSW,252,2.0,3.0,54,0.00,,,0.00,WeatherCatV1.14B232,2013-03-07 04:01:00,
2013-03-06 21:06:00,38.0,23.7,30.02,West,270,0.0,0.0,56,0.00,,,0.00,WeatherCatV1.14B232,2013-03-07 04:06:00,
2013-03-06 21:11:00,38.1,23.4,30.02,NNE,30,0.0,1.0,55,0.00,,,0.00,WeatherCatV1.14B232,2013-03-07 04:11:00,
2013-03-06 21:16:00,37.8,23.5,30.02,SE,141,0.0,1.0,56,0.00,,,0.00,WeatherCatV1.14B232,2013-03-07 04:16:00,
2013-03-06 21:21:00,37.6,24.2,30.02,SE,141,0.0,0.0,58,0.00,,,0.00,WeatherCatV1.14B232,2013-03-07 04:21:00,
2013-03-06 21:26:00,37.3,23.9,30.02,SW,228,0.0,1.0,58,0.00,,,0.00,WeatherCatV1.14B232,2013-03-07 04:26:00,
2013-03-06 21:31:00,37.0,23.6,30.02,ESE,103,1.0,2.0,58,0.00,,,0.00,WeatherCatV1.14B232,2013-03-07 04:31:00,
2013-03-06 21:36:00,36.9,25.1,30.02,SW,228,0.0,1.0,62,0.00,,,0.00,WeatherCatV1.14B232,2013-03-07 04:36:00,
2013-03-06 21:41:00,36.2,24.5,30.01,ESE,103,1.0,1.0,62,0.00,,,0.00,WeatherCatV1.14B232,2013-03-07 04:41:00,
2013-03-06 21:46:00,35.7,24.4,30.01,SW,233,1.0,1.0,63,0.00,,,0.00,WeatherCatV1.14B232,2013-03-07 04:46:00,
2013-03-06 21:51:00,35.2,25.0,30.01,SW,233,0.0,0.0,66,0.00,,,0.00,WeatherCatV1.14B232,2013-03-07 04:51:00,
2013-03-06 21:54:00,34.9,24.3,30.02,SW,228,1.0,2.0,65,0.00,,,0.00,WeatherCatV1.14B232,2013-03-07 04:54:00,
2013-03-06 21:59:00,34.7,24.2,30.02,WNW,297,0.0,0.0,65,0.00,,,0.00,WeatherCatV1.14B232,2013-03-07 04:59:00,
2013-03-06 22:00:00,34.7,24.2,30.02,WNW,297,0.0,0.0,65,0.00,,,0.00,WeatherCatV1.14B232,2013-03-07 05:00:00,
2013-03-06 22:05:00,34.8,23.9,30.02,SSE,167,0.0,2.0,64,0.00,,,0.00,WeatherCatV1.14B232,2013-03-07 05:05:00,
2013-03-06 22:10:00,34.8,24.3,30.02,SE,134,0.0,2.0,65,0.00,,,0.00,WeatherCatV1.14B232,2013-03-07 05:10:00,
2013-03-06 22:15:00,34.7,23.8,30.02,SSE,166,1.0,1.0,64,0.00,,,0.00,WeatherCatV1.14B232,2013-03-07 05:15:00,
2013-03-06 22:20:00,34.3,23.8,30.02,NE,41,0.0,1.0,65,0.00,,,0.00,WeatherCatV1.14B232,2013-03-07 05:20:00,
2013-03-06 22:25:00,33.9,23.0,30.02,NE,41,0.0,0.0,64,0.00,,,0.00,WeatherCatV1.14B232,2013-03-07 05:25:00,
2013-03-06 22:30:00,33.5,23.7,30.02,SSE,151,2.0,2.0,67,0.00,,,0.00,WeatherCatV1.14B232,2013-03-07 05:30:00,
2013-03-06 22:35:00,33.6,23.8,30.02,SE,127,0.0,0.0,67,0.00,,,0.00,WeatherCatV1.14B232,2013-03-07 05:35:00,
2013-03-06 22:40:00,33.3,23.9,30.02,WSW,253,0.0,0.0,68,0.00,,,0.00,WeatherCatV1.14B232,2013-03-07 05:40:00,
2013-03-06 22:45:00,33.2,23.4,30.02,WSW,255,0.0,0.0,67,0.00,,,0.00,WeatherCatV1.14B232,2013-03-07 05:45:00,
2013-03-06 22:50:00,33.2,23.8,30.02,SE,130,0.0,0.0,68,0.00,,,0.00,WeatherCatV1.14B232,2013-03-07 05:50:00,
2013-03-06 22:55:00,33.0,23.6,30.02,ESE,115,0.0,0.0,68,0.00,,,0.00,WeatherCatV1.14B232,2013-03-07 05:55:00,
2013-03-06 23:00:00,32.9,23.9,30.02,ESE,115,0.0,0.0,69,0.00,,,0.00,WeatherCatV1.14B232,2013-03-07 06:00:00,
2013-03-06 23:05:00,32.6,24.9,30.02,SSE,153,2.0,2.0,73,0.00,,,0.00,WeatherCatV1.14B232,2013-03-07 06:05:00,
2013-03-06 23:10:00,32.2,25.2,30.02,South,172,1.0,3.0,75,0.00,,,0.00,WeatherCatV1.14B232,2013-03-07 06:10:00,
2013-03-06 23:15:00,31.7,24.7,30.02,SE,124,2.0,2.0,75,0.00,,,0.00,WeatherCatV1.14B232,2013-03-07 06:15:00,
2013-03-06 23:20:00,31.6,24.3,30.01,ESE,115,0.0,0.0,74,0.00,,,0.00,WeatherCatV1.14B232,2013-03-07 06:20:00,
2013-03-06 23:25:00,31.4,24.4,30.01,SE,137,0.0,0.0,75,0.00,,,0.00,WeatherCatV1.14B232,2013-03-07 06:25:00,
2013-03-06 23:30:00,31.1,24.1,30.02,WSW,243,0.0,0.0,75,0.00,,,0.00,WeatherCatV1.14B232,2013-03-07 06:30:00,
2013-03-06 23:35:00,30.9,23.9,30.02,WNW,300,0.0,1.0,75,0.00,,,0.00,WeatherCatV1.14B232,2013-03-07 06:35:00,
2013-03-06 23:40:00,31.0,24.0,30.01,NNE,27,0.0,1.0,75,0.00,,,0.00,WeatherCatV1.14B232,2013-03-07 06:40:00,
2013-03-06 23:45:00,31.0,24.7,30.01,SSE,163,1.0,1.0,77,0.00,,,0.00,WeatherCatV1.14B232,2013-03-07 06:45:00,
2013-03-06 23:50:00,30.5,24.2,30.01,East,99,1.0,1.0,77,0.00,,,0.00,WeatherCatV1.14B232,2013-03-07 06:50:00,
2013-03-06 23:55:00,30.6,24.3,30.01,SSE,165,0.0,2.0,77,0.00,,,0.00,WeatherCatV1.14B232,2013-03-07 06:55:00,